sensor_id;sensor_type;location;lat;lon;timestamp;P1;durP1;ratioP1;P2;durP2;ratioP2
72286;SDS011;60221;45.696;16.076;2023-03-31T00:02:03;6.10;;;0.60;;
72286;SDS011;60221;45.696;16.076;2023-03-31T00:04:42;4.50;;;0.90;;
72286;SDS011;60221;45.696;16.076;2023-03-31T00:07:13;4.00;;;0.50;;
72286;SDS011;60221;45.696;16.076;2023-03-31T00:09:42;5.50;;;0.70;;
72286;SDS011;60221;45.696;16.076;2023-03-31T00:12:12;4.60;;;0.50;;
72286;SDS011;60221;45.696;16.076;2023-03-31T00:14:40;7.90;;;0.70;;
72286;SDS011;60221;45.696;16.076;2023-03-31T00:17:07;6.50;;;1.00;;
72286;SDS011;60221;45.696;16.076;2023-03-31T00:19:35;6.40;;;0.60;;
72286;SDS011;60221;45.696;16.076;2023-03-31T00:22:02;5.20;;;0.40;;
72286;SDS011;60221;45.696;16.076;2023-03-31T00:24:31;4.90;;;0.60;;
72286;SDS011;60221;45.696;16.076;2023-03-31T00:26:59;4.10;;;0.70;;
72286;SDS011;60221;45.696;16.076;2023-03-31T00:29:26;4.30;;;0.30;;
72286;SDS011;60221;45.696;16.076;2023-03-31T00:31:54;5.30;;;0.50;;
72286;SDS011;60221;45.696;16.076;2023-03-31T00:34:21;7.30;;;0.70;;
72286;SDS011;60221;45.696;16.076;2023-03-31T00:36:48;6.20;;;0.80;;
72286;SDS011;60221;45.696;16.076;2023-03-31T00:39:16;5.60;;;0.80;;
72286;SDS011;60221;45.696;16.076;2023-03-31T00:41:44;3.80;;;0.40;;
72286;SDS011;60221;45.696;16.076;2023-03-31T00:44:15;5.60;;;0.30;;
72286;SDS011;60221;45.696;16.076;2023-03-31T00:49:36;4.70;;;0.50;;
72286;SDS011;60221;45.696;16.076;2023-03-31T00:52:23;4.60;;;0.50;;
72286;SDS011;60221;45.696;16.076;2023-03-31T00:54:52;5.00;;;0.50;;
72286;SDS011;60221;45.696;16.076;2023-03-31T00:57:21;6.90;;;0.70;;
72286;SDS011;60221;45.696;16.076;2023-03-31T00:59:49;5.80;;;0.60;;
72286;SDS011;60221;45.696;16.076;2023-03-31T01:02:18;6.60;;;0.60;;
72286;SDS011;60221;45.696;16.076;2023-03-31T01:04:51;6.10;;;0.80;;
72286;SDS011;60221;45.696;16.076;2023-03-31T01:07:42;5.00;;;0.50;;
72286;SDS011;60221;45.696;16.076;2023-03-31T01:10:08;3.60;;;0.40;;
72286;SDS011;60221;45.696;16.076;2023-03-31T01:12:36;5.80;;;0.50;;
72286;SDS011;60221;45.696;16.076;2023-03-31T01:15:03;4.30;;;0.50;;
72286;SDS011;60221;45.696;16.076;2023-03-31T01:17:30;4.80;;;0.50;;
72286;SDS011;60221;45.696;16.076;2023-03-31T01:25:54;3.60;;;0.60;;
72286;SDS011;60221;45.696;16.076;2023-03-31T01:36:12;3.60;;;0.40;;
72286;SDS011;60221;45.696;16.076;2023-03-31T01:38:54;4.00;;;0.40;;
72286;SDS011;60221;45.696;16.076;2023-03-31T01:46:42;3.40;;;0.30;;
72286;SDS011;60221;45.696;16.076;2023-03-31T01:52:05;3.90;;;0.30;;
72286;SDS011;60221;45.696;16.076;2023-03-31T02:02:17;5.20;;;0.40;;
72286;SDS011;60221;45.696;16.076;2023-03-31T02:04:56;3.30;;;0.40;;
72286;SDS011;60221;45.696;16.076;2023-03-31T02:07:27;2.70;;;0.20;;
72286;SDS011;60221;45.696;16.076;2023-03-31T02:09:59;2.90;;;0.40;;
72286;SDS011;60221;45.696;16.076;2023-03-31T02:12:27;3.60;;;0.40;;
72286;SDS011;60221;45.696;16.076;2023-03-31T02:14:56;4.60;;;0.30;;
72286;SDS011;60221;45.696;16.076;2023-03-31T02:17:25;4.90;;;0.40;;
72286;SDS011;60221;45.696;16.076;2023-03-31T02:19:57;5.20;;;0.50;;
72286;SDS011;60221;45.696;16.076;2023-03-31T02:22:26;5.60;;;0.50;;
72286;SDS011;60221;45.696;16.076;2023-03-31T02:24:55;6.20;;;0.30;;
72286;SDS011;60221;45.696;16.076;2023-03-31T02:27:30;3.80;;;0.50;;
72286;SDS011;60221;45.696;16.076;2023-03-31T02:29:58;6.50;;;0.40;;
72286;SDS011;60221;45.696;16.076;2023-03-31T02:34:59;4.60;;;0.50;;
72286;SDS011;60221;45.696;16.076;2023-03-31T02:37:27;2.90;;;0.20;;
72286;SDS011;60221;45.696;16.076;2023-03-31T02:39:55;5.00;;;0.40;;
72286;SDS011;60221;45.696;16.076;2023-03-31T02:42:22;2.80;;;0.40;;
72286;SDS011;60221;45.696;16.076;2023-03-31T02:44:50;5.90;;;0.50;;
72286;SDS011;60221;45.696;16.076;2023-03-31T02:47:17;4.60;;;0.50;;
72286;SDS011;60221;45.696;16.076;2023-03-31T02:49:50;3.50;;;0.50;;
72286;SDS011;60221;45.696;16.076;2023-03-31T02:52:22;3.00;;;0.20;;
72286;SDS011;60221;45.696;16.076;2023-03-31T02:54:56;3.60;;;0.30;;
72286;SDS011;60221;45.696;16.076;2023-03-31T02:59:58;2.10;;;0.10;;
72286;SDS011;60221;45.696;16.076;2023-03-31T03:05:08;4.50;;;0.40;;
72286;SDS011;60221;45.696;16.076;2023-03-31T03:07:59;3.40;;;0.30;;
72286;SDS011;60221;45.696;16.076;2023-03-31T03:15:47;5.50;;;0.60;;
72286;SDS011;60221;45.696;16.076;2023-03-31T03:18:15;5.10;;;0.70;;
72286;SDS011;60221;45.696;16.076;2023-03-31T03:20:42;6.30;;;0.60;;
72286;SDS011;60221;45.696;16.076;2023-03-31T03:23:14;5.60;;;0.40;;
72286;SDS011;60221;45.696;16.076;2023-03-31T03:25:41;2.60;;;0.60;;
72286;SDS011;60221;45.696;16.076;2023-03-31T03:28:08;3.10;;;0.50;;
72286;SDS011;60221;45.696;16.076;2023-03-31T03:30:35;4.30;;;0.40;;
72286;SDS011;60221;45.696;16.076;2023-03-31T03:33:01;5.10;;;0.40;;
72286;SDS011;60221;45.696;16.076;2023-03-31T03:35:32;5.50;;;0.50;;
72286;SDS011;60221;45.696;16.076;2023-03-31T03:37:58;3.70;;;0.30;;
72286;SDS011;60221;45.696;16.076;2023-03-31T03:40:25;2.60;;;0.40;;
72286;SDS011;60221;45.696;16.076;2023-03-31T03:42:52;4.80;;;0.20;;
72286;SDS011;60221;45.696;16.076;2023-03-31T03:45:19;5.00;;;0.30;;
72286;SDS011;60221;45.696;16.076;2023-03-31T03:47:45;3.50;;;0.40;;
72286;SDS011;60221;45.696;16.076;2023-03-31T03:50:12;4.60;;;0.50;;
72286;SDS011;60221;45.696;16.076;2023-03-31T03:52:44;4.50;;;0.50;;
72286;SDS011;60221;45.696;16.076;2023-03-31T03:55:11;5.20;;;0.20;;
72286;SDS011;60221;45.696;16.076;2023-03-31T03:57:39;3.70;;;0.20;;
72286;SDS011;60221;45.696;16.076;2023-03-31T04:00:06;5.10;;;0.20;;
72286;SDS011;60221;45.696;16.076;2023-03-31T04:02:38;4.20;;;0.20;;
72286;SDS011;60221;45.696;16.076;2023-03-31T04:05:05;4.30;;;0.30;;
72286;SDS011;60221;45.696;16.076;2023-03-31T04:07:32;3.40;;;0.30;;
72286;SDS011;60221;45.696;16.076;2023-03-31T04:09:59;2.90;;;0.30;;
72286;SDS011;60221;45.696;16.076;2023-03-31T04:12:26;4.80;;;0.40;;
72286;SDS011;60221;45.696;16.076;2023-03-31T04:14:53;4.20;;;0.20;;
72286;SDS011;60221;45.696;16.076;2023-03-31T04:17:19;4.20;;;0.30;;
72286;SDS011;60221;45.696;16.076;2023-03-31T04:20:03;4.00;;;0.20;;
72286;SDS011;60221;45.696;16.076;2023-03-31T04:22:31;3.40;;;0.30;;
72286;SDS011;60221;45.696;16.076;2023-03-31T04:25:07;6.60;;;0.30;;
72286;SDS011;60221;45.696;16.076;2023-03-31T04:27:42;6.40;;;0.40;;
72286;SDS011;60221;45.696;16.076;2023-03-31T04:30:21;2.80;;;0.30;;
72286;SDS011;60221;45.696;16.076;2023-03-31T04:35:16;4.50;;;0.40;;
72286;SDS011;60221;45.696;16.076;2023-03-31T04:37:47;4.70;;;0.90;;
72286;SDS011;60221;45.696;16.076;2023-03-31T04:40:14;7.30;;;1.80;;
72286;SDS011;60221;45.696;16.076;2023-03-31T04:42:42;5.10;;;1.00;;
72286;SDS011;60221;45.696;16.076;2023-03-31T04:45:09;8.10;;;3.90;;
72286;SDS011;60221;45.696;16.076;2023-03-31T04:47:37;6.60;;;2.10;;
72286;SDS011;60221;45.696;16.076;2023-03-31T04:50:04;6.90;;;1.00;;
72286;SDS011;60221;45.696;16.076;2023-03-31T04:52:31;4.10;;;0.40;;
72286;SDS011;60221;45.696;16.076;2023-03-31T04:54:58;5.40;;;0.50;;
72286;SDS011;60221;45.696;16.076;2023-03-31T04:57:24;5.00;;;0.50;;
72286;SDS011;60221;45.696;16.076;2023-03-31T04:59:51;3.90;;;0.40;;
72286;SDS011;60221;45.696;16.076;2023-03-31T05:02:18;15.70;;;9.20;;
72286;SDS011;60221;45.696;16.076;2023-03-31T05:04:51;11.30;;;2.20;;
72286;SDS011;60221;45.696;16.076;2023-03-31T05:07:18;6.00;;;1.50;;
72286;SDS011;60221;45.696;16.076;2023-03-31T05:09:44;4.60;;;0.80;;
72286;SDS011;60221;45.696;16.076;2023-03-31T05:12:12;5.30;;;0.70;;
72286;SDS011;60221;45.696;16.076;2023-03-31T05:14:39;4.30;;;0.50;;
72286;SDS011;60221;45.696;16.076;2023-03-31T05:17:06;3.30;;;0.50;;
72286;SDS011;60221;45.696;16.076;2023-03-31T05:19:32;4.40;;;0.70;;
72286;SDS011;60221;45.696;16.076;2023-03-31T05:21:59;8.20;;;0.80;;
72286;SDS011;60221;45.696;16.076;2023-03-31T05:24:26;3.50;;;0.50;;
72286;SDS011;60221;45.696;16.076;2023-03-31T05:26:56;6.20;;;1.40;;
72286;SDS011;60221;45.696;16.076;2023-03-31T05:29:23;3.70;;;0.30;;
72286;SDS011;60221;45.696;16.076;2023-03-31T05:31:50;3.40;;;0.50;;
72286;SDS011;60221;45.696;16.076;2023-03-31T05:34:19;4.40;;;0.30;;
72286;SDS011;60221;45.696;16.076;2023-03-31T05:36:46;6.30;;;0.60;;
72286;SDS011;60221;45.696;16.076;2023-03-31T05:39:18;5.00;;;0.40;;
72286;SDS011;60221;45.696;16.076;2023-03-31T05:41:45;3.70;;;1.30;;
72286;SDS011;60221;45.696;16.076;2023-03-31T05:44:12;7.00;;;1.30;;
72286;SDS011;60221;45.696;16.076;2023-03-31T05:46:39;6.00;;;1.00;;
72286;SDS011;60221;45.696;16.076;2023-03-31T05:49:07;3.40;;;0.40;;
72286;SDS011;60221;45.696;16.076;2023-03-31T05:51:33;5.00;;;0.40;;
72286;SDS011;60221;45.696;16.076;2023-03-31T05:54:00;3.80;;;0.50;;
72286;SDS011;60221;45.696;16.076;2023-03-31T05:56:27;4.20;;;0.60;;
72286;SDS011;60221;45.696;16.076;2023-03-31T05:58:54;4.80;;;0.70;;
72286;SDS011;60221;45.696;16.076;2023-03-31T06:01:21;5.50;;;0.60;;
72286;SDS011;60221;45.696;16.076;2023-03-31T06:03:49;2.70;;;0.30;;
72286;SDS011;60221;45.696;16.076;2023-03-31T06:06:17;4.10;;;0.40;;
72286;SDS011;60221;45.696;16.076;2023-03-31T06:08:44;6.20;;;0.60;;
72286;SDS011;60221;45.696;16.076;2023-03-31T06:11:13;3.30;;;0.40;;
72286;SDS011;60221;45.696;16.076;2023-03-31T06:13:40;6.00;;;0.60;;
72286;SDS011;60221;45.696;16.076;2023-03-31T06:16:09;12.10;;;4.00;;
72286;SDS011;60221;45.696;16.076;2023-03-31T06:18:36;6.70;;;1.30;;
72286;SDS011;60221;45.696;16.076;2023-03-31T06:21:03;14.10;;;4.70;;
72286;SDS011;60221;45.696;16.076;2023-03-31T06:23:31;11.00;;;2.40;;
72286;SDS011;60221;45.696;16.076;2023-03-31T06:26:06;7.00;;;1.50;;
72286;SDS011;60221;45.696;16.076;2023-03-31T06:28:34;16.10;;;5.60;;
72286;SDS011;60221;45.696;16.076;2023-03-31T06:31:01;33.50;;;16.10;;
72286;SDS011;60221;45.696;16.076;2023-03-31T06:33:29;17.50;;;8.00;;
72286;SDS011;60221;45.696;16.076;2023-03-31T06:35:56;9.00;;;3.10;;
72286;SDS011;60221;45.696;16.076;2023-03-31T06:38:25;8.10;;;2.30;;
72286;SDS011;60221;45.696;16.076;2023-03-31T06:40:51;10.10;;;2.60;;
72286;SDS011;60221;45.696;16.076;2023-03-31T06:43:18;16.30;;;5.30;;
72286;SDS011;60221;45.696;16.076;2023-03-31T06:45:46;16.00;;;3.90;;
72286;SDS011;60221;45.696;16.076;2023-03-31T06:48:13;10.30;;;4.50;;
72286;SDS011;60221;45.696;16.076;2023-03-31T06:50:40;7.40;;;2.60;;
72286;SDS011;60221;45.696;16.076;2023-03-31T06:53:08;9.10;;;4.30;;
72286;SDS011;60221;45.696;16.076;2023-03-31T06:55:35;19.80;;;8.30;;
72286;SDS011;60221;45.696;16.076;2023-03-31T06:58:02;27.30;;;11.90;;
72286;SDS011;60221;45.696;16.076;2023-03-31T07:00:29;25.90;;;9.80;;
72286;SDS011;60221;45.696;16.076;2023-03-31T07:02:56;12.00;;;5.20;;
72286;SDS011;60221;45.696;16.076;2023-03-31T07:05:24;9.20;;;4.30;;
72286;SDS011;60221;45.696;16.076;2023-03-31T07:07:53;16.00;;;8.00;;
72286;SDS011;60221;45.696;16.076;2023-03-31T07:10:20;50.50;;;23.90;;
72286;SDS011;60221;45.696;16.076;2023-03-31T07:12:48;64.80;;;24.50;;
72286;SDS011;60221;45.696;16.076;2023-03-31T07:15:15;21.40;;;8.10;;
72286;SDS011;60221;45.696;16.076;2023-03-31T07:17:42;16.70;;;8.40;;
72286;SDS011;60221;45.696;16.076;2023-03-31T07:20:09;17.80;;;8.20;;
72286;SDS011;60221;45.696;16.076;2023-03-31T07:22:43;15.70;;;6.20;;
72286;SDS011;60221;45.696;16.076;2023-03-31T07:25:11;30.20;;;11.70;;
72286;SDS011;60221;45.696;16.076;2023-03-31T07:27:38;13.40;;;6.10;;
72286;SDS011;60221;45.696;16.076;2023-03-31T07:30:06;8.60;;;2.80;;
72286;SDS011;60221;45.696;16.076;2023-03-31T07:32:33;23.80;;;10.90;;
72286;SDS011;60221;45.696;16.076;2023-03-31T07:34:59;55.70;;;26.20;;
72286;SDS011;60221;45.696;16.076;2023-03-31T07:37:26;35.30;;;14.90;;
72286;SDS011;60221;45.696;16.076;2023-03-31T07:39:53;17.00;;;7.20;;
72286;SDS011;60221;45.696;16.076;2023-03-31T07:42:20;29.00;;;14.30;;
72286;SDS011;60221;45.696;16.076;2023-03-31T07:44:47;17.30;;;7.40;;
72286;SDS011;60221;45.696;16.076;2023-03-31T07:47:14;14.70;;;6.50;;
72286;SDS011;60221;45.696;16.076;2023-03-31T07:49:41;11.50;;;4.40;;
72286;SDS011;60221;45.696;16.076;2023-03-31T07:52:08;20.50;;;7.90;;
72286;SDS011;60221;45.696;16.076;2023-03-31T07:54:34;28.60;;;13.30;;
72286;SDS011;60221;45.696;16.076;2023-03-31T07:57:02;46.40;;;21.80;;
72286;SDS011;60221;45.696;16.076;2023-03-31T07:59:31;42.70;;;18.20;;
72286;SDS011;60221;45.696;16.076;2023-03-31T08:01:58;77.30;;;33.10;;
72286;SDS011;60221;45.696;16.076;2023-03-31T08:04:26;29.90;;;12.50;;
72286;SDS011;60221;45.696;16.076;2023-03-31T08:06:53;13.50;;;4.50;;
72286;SDS011;60221;45.696;16.076;2023-03-31T08:09:20;27.60;;;10.60;;
72286;SDS011;60221;45.696;16.076;2023-03-31T08:11:48;22.20;;;9.50;;
72286;SDS011;60221;45.696;16.076;2023-03-31T08:14:15;26.40;;;10.60;;
72286;SDS011;60221;45.696;16.076;2023-03-31T08:16:52;18.00;;;7.20;;
72286;SDS011;60221;45.696;16.076;2023-03-31T08:19:20;12.20;;;4.30;;
72286;SDS011;60221;45.696;16.076;2023-03-31T08:21:47;14.80;;;6.30;;
72286;SDS011;60221;45.696;16.076;2023-03-31T08:24:14;7.60;;;2.70;;
72286;SDS011;60221;45.696;16.076;2023-03-31T08:26:41;7.70;;;2.10;;
72286;SDS011;60221;45.696;16.076;2023-03-31T08:29:08;19.20;;;7.00;;
72286;SDS011;60221;45.696;16.076;2023-03-31T08:31:35;13.40;;;3.20;;
72286;SDS011;60221;45.696;16.076;2023-03-31T08:34:01;7.10;;;2.80;;
72286;SDS011;60221;45.696;16.076;2023-03-31T08:36:28;6.10;;;1.50;;
72286;SDS011;60221;45.696;16.076;2023-03-31T08:38:55;14.90;;;6.80;;
72286;SDS011;60221;45.696;16.076;2023-03-31T08:41:26;36.70;;;13.50;;
72286;SDS011;60221;45.696;16.076;2023-03-31T08:43:59;36.50;;;14.00;;
72286;SDS011;60221;45.696;16.076;2023-03-31T08:46:28;40.40;;;17.60;;
72286;SDS011;60221;45.696;16.076;2023-03-31T08:48:56;20.60;;;10.30;;
72286;SDS011;60221;45.696;16.076;2023-03-31T08:51:25;25.70;;;11.20;;
72286;SDS011;60221;45.696;16.076;2023-03-31T08:53:58;13.20;;;4.40;;
72286;SDS011;60221;45.696;16.076;2023-03-31T08:56:25;11.50;;;4.30;;
72286;SDS011;60221;45.696;16.076;2023-03-31T08:58:52;14.40;;;5.30;;
72286;SDS011;60221;45.696;16.076;2023-03-31T09:06:22;11.70;;;3.80;;
72286;SDS011;60221;45.696;16.076;2023-03-31T09:08:53;14.50;;;5.50;;
72286;SDS011;60221;45.696;16.076;2023-03-31T09:11:31;6.20;;;2.00;;
72286;SDS011;60221;45.696;16.076;2023-03-31T09:14:06;9.20;;;3.40;;
72286;SDS011;60221;45.696;16.076;2023-03-31T09:22:07;12.50;;;5.30;;
72286;SDS011;60221;45.696;16.076;2023-03-31T09:24:42;7.60;;;2.20;;
72286;SDS011;60221;45.696;16.076;2023-03-31T09:27:10;6.70;;;1.30;;
72286;SDS011;60221;45.696;16.076;2023-03-31T09:29:41;9.20;;;1.30;;
72286;SDS011;60221;45.696;16.076;2023-03-31T09:34:42;7.30;;;1.10;;
72286;SDS011;60221;45.696;16.076;2023-03-31T09:37:10;5.20;;;1.00;;
72286;SDS011;60221;45.696;16.076;2023-03-31T09:39:37;11.80;;;3.30;;
72286;SDS011;60221;45.696;16.076;2023-03-31T09:42:04;19.60;;;7.70;;
72286;SDS011;60221;45.696;16.076;2023-03-31T09:47:38;9.70;;;4.80;;
72286;SDS011;60221;45.696;16.076;2023-03-31T09:49:57;21.60;;;8.70;;
72286;SDS011;60221;45.696;16.076;2023-03-31T09:52:26;17.00;;;6.30;;
72286;SDS011;60221;45.696;16.076;2023-03-31T09:54:54;28.40;;;11.80;;
72286;SDS011;60221;45.696;16.076;2023-03-31T09:57:28;19.00;;;10.30;;
72286;SDS011;60221;45.696;16.076;2023-03-31T10:02:42;11.10;;;4.70;;
72286;SDS011;60221;45.696;16.076;2023-03-31T10:05:20;7.00;;;1.80;;
72286;SDS011;60221;45.696;16.076;2023-03-31T10:07:48;6.70;;;1.50;;
72286;SDS011;60221;45.696;16.076;2023-03-31T10:10:21;7.50;;;2.30;;
72286;SDS011;60221;45.696;16.076;2023-03-31T10:12:50;13.10;;;6.10;;
72286;SDS011;60221;45.696;16.076;2023-03-31T10:15:27;8.70;;;2.90;;
72286;SDS011;60221;45.696;16.076;2023-03-31T10:17:54;24.40;;;10.00;;
72286;SDS011;60221;45.696;16.076;2023-03-31T10:20:29;15.20;;;4.70;;
72286;SDS011;60221;45.696;16.076;2023-03-31T10:22:58;10.80;;;4.40;;
72286;SDS011;60221;45.696;16.076;2023-03-31T10:25:28;9.70;;;1.80;;
72286;SDS011;60221;45.696;16.076;2023-03-31T10:27:55;6.30;;;2.60;;
72286;SDS011;60221;45.696;16.076;2023-03-31T10:30:25;22.20;;;10.20;;
72286;SDS011;60221;45.696;16.076;2023-03-31T10:32:52;38.70;;;16.10;;
72286;SDS011;60221;45.696;16.076;2023-03-31T10:35:25;27.40;;;12.60;;
72286;SDS011;60221;45.696;16.076;2023-03-31T10:37:55;15.90;;;7.60;;
72286;SDS011;60221;45.696;16.076;2023-03-31T10:40:24;15.10;;;6.20;;
72286;SDS011;60221;45.696;16.076;2023-03-31T10:43:02;22.10;;;7.60;;
72286;SDS011;60221;45.696;16.076;2023-03-31T10:45:30;37.00;;;15.30;;
72286;SDS011;60221;45.696;16.076;2023-03-31T10:48:04;21.90;;;9.20;;
72286;SDS011;60221;45.696;16.076;2023-03-31T10:50:42;12.30;;;4.20;;
72286;SDS011;60221;45.696;16.076;2023-03-31T10:53:12;9.60;;;3.50;;
72286;SDS011;60221;45.696;16.076;2023-03-31T11:06:06;6.30;;;1.60;;
72286;SDS011;60221;45.696;16.076;2023-03-31T11:13:59;27.20;;;12.70;;
72286;SDS011;60221;45.696;16.076;2023-03-31T11:16:33;15.60;;;6.70;;
72286;SDS011;60221;45.696;16.076;2023-03-31T11:21:37;39.90;;;17.20;;
72286;SDS011;60221;45.696;16.076;2023-03-31T11:29:39;13.60;;;6.90;;
72286;SDS011;60221;45.696;16.076;2023-03-31T11:45:02;7.10;;;1.80;;
72286;SDS011;60221;45.696;16.076;2023-03-31T11:47:32;5.80;;;1.80;;
72286;SDS011;60221;45.696;16.076;2023-03-31T11:49:59;7.50;;;2.20;;
72286;SDS011;60221;45.696;16.076;2023-03-31T11:52:30;19.10;;;7.70;;
72286;SDS011;60221;45.696;16.076;2023-03-31T11:55:05;20.50;;;9.10;;
72286;SDS011;60221;45.696;16.076;2023-03-31T11:57:45;9.10;;;3.60;;
72286;SDS011;60221;45.696;16.076;2023-03-31T12:02:49;6.00;;;1.20;;
72286;SDS011;60221;45.696;16.076;2023-03-31T12:05:16;7.90;;;1.30;;
72286;SDS011;60221;45.696;16.076;2023-03-31T12:07:47;9.60;;;4.20;;
72286;SDS011;60221;45.696;16.076;2023-03-31T12:10:21;9.00;;;4.60;;
72286;SDS011;60221;45.696;16.076;2023-03-31T12:18:56;14.00;;;5.10;;
72286;SDS011;60221;45.696;16.076;2023-03-31T12:21:23;10.70;;;4.10;;
72286;SDS011;60221;45.696;16.076;2023-03-31T12:23:52;15.10;;;3.80;;
72286;SDS011;60221;45.696;16.076;2023-03-31T12:28:49;24.30;;;9.80;;
72286;SDS011;60221;45.696;16.076;2023-03-31T12:31:19;66.10;;;23.70;;
72286;SDS011;60221;45.696;16.076;2023-03-31T12:33:54;61.60;;;24.30;;
72286;SDS011;60221;45.696;16.076;2023-03-31T12:36:45;17.10;;;7.00;;
72286;SDS011;60221;45.696;16.076;2023-03-31T12:50:00;8.70;;;2.50;;
72286;SDS011;60221;45.696;16.076;2023-03-31T12:55:22;6.10;;;0.90;;
72286;SDS011;60221;45.696;16.076;2023-03-31T13:01:00;6.60;;;2.00;;
72286;SDS011;60221;45.696;16.076;2023-03-31T13:06:03;5.60;;;1.70;;
72286;SDS011;60221;45.696;16.076;2023-03-31T13:11:16;12.10;;;2.80;;
72286;SDS011;60221;45.696;16.076;2023-03-31T13:13:51;8.90;;;1.50;;
72286;SDS011;60221;45.696;16.076;2023-03-31T13:16:41;5.60;;;1.20;;
72286;SDS011;60221;45.696;16.076;2023-03-31T13:19:10;10.90;;;3.30;;
72286;SDS011;60221;45.696;16.076;2023-03-31T13:21:51;11.00;;;3.00;;
72286;SDS011;60221;45.696;16.076;2023-03-31T13:24:20;12.60;;;2.10;;
72286;SDS011;60221;45.696;16.076;2023-03-31T13:26:47;12.00;;;7.60;;
72286;SDS011;60221;45.696;16.076;2023-03-31T13:52:08;9.20;;;2.70;;
72286;SDS011;60221;45.696;16.076;2023-03-31T14:02:22;8.70;;;2.10;;
72286;SDS011;60221;45.696;16.076;2023-03-31T14:07:36;7.60;;;2.30;;
72286;SDS011;60221;45.696;16.076;2023-03-31T14:10:04;5.80;;;2.00;;
72286;SDS011;60221;45.696;16.076;2023-03-31T14:12:33;8.40;;;3.00;;
72286;SDS011;60221;45.696;16.076;2023-03-31T14:15:01;15.60;;;4.20;;
72286;SDS011;60221;45.696;16.076;2023-03-31T14:17:37;12.10;;;3.30;;
72286;SDS011;60221;45.696;16.076;2023-03-31T14:20:14;9.30;;;2.30;;
72286;SDS011;60221;45.696;16.076;2023-03-31T14:31:20;15.00;;;5.20;;
72286;SDS011;60221;45.696;16.076;2023-03-31T14:33:35;8.20;;;2.40;;
72286;SDS011;60221;45.696;16.076;2023-03-31T14:36:27;6.90;;;1.60;;
72286;SDS011;60221;45.696;16.076;2023-03-31T14:38:54;4.70;;;1.00;;
72286;SDS011;60221;45.696;16.076;2023-03-31T14:41:26;5.60;;;1.10;;
72286;SDS011;60221;45.696;16.076;2023-03-31T14:43:56;9.90;;;1.00;;
72286;SDS011;60221;45.696;16.076;2023-03-31T14:46:23;16.60;;;5.20;;
72286;SDS011;60221;45.696;16.076;2023-03-31T14:48:50;21.80;;;7.60;;
72286;SDS011;60221;45.696;16.076;2023-03-31T14:51:25;8.90;;;2.80;;
72286;SDS011;60221;45.696;16.076;2023-03-31T14:53:56;5.80;;;0.80;;
72286;SDS011;60221;45.696;16.076;2023-03-31T14:56:29;5.40;;;0.70;;
72286;SDS011;60221;45.696;16.076;2023-03-31T14:58:59;4.20;;;0.80;;
72286;SDS011;60221;45.696;16.076;2023-03-31T15:01:28;5.20;;;0.80;;
72286;SDS011;60221;45.696;16.076;2023-03-31T15:03:55;7.00;;;0.50;;
72286;SDS011;60221;45.696;16.076;2023-03-31T15:06:25;4.90;;;0.60;;
72286;SDS011;60221;45.696;16.076;2023-03-31T15:08:53;3.80;;;0.60;;
72286;SDS011;60221;45.696;16.076;2023-03-31T15:11:21;4.40;;;0.90;;
72286;SDS011;60221;45.696;16.076;2023-03-31T15:13:49;7.10;;;0.80;;
72286;SDS011;60221;45.696;16.076;2023-03-31T15:16:31;7.60;;;0.80;;
72286;SDS011;60221;45.696;16.076;2023-03-31T15:19:03;3.70;;;0.70;;
72286;SDS011;60221;45.696;16.076;2023-03-31T15:21:31;5.10;;;0.70;;
72286;SDS011;60221;45.696;16.076;2023-03-31T15:23:59;7.70;;;0.80;;
72286;SDS011;60221;45.696;16.076;2023-03-31T15:26:30;4.80;;;0.80;;
72286;SDS011;60221;45.696;16.076;2023-03-31T15:29:19;5.60;;;0.90;;
72286;SDS011;60221;45.696;16.076;2023-03-31T15:31:47;7.30;;;0.60;;
72286;SDS011;60221;45.696;16.076;2023-03-31T15:34:22;4.70;;;0.60;;
72286;SDS011;60221;45.696;16.076;2023-03-31T15:36:53;7.50;;;1.30;;
72286;SDS011;60221;45.696;16.076;2023-03-31T15:39:22;8.20;;;1.20;;
72286;SDS011;60221;45.696;16.076;2023-03-31T15:41:49;6.90;;;0.60;;
72286;SDS011;60221;45.696;16.076;2023-03-31T15:44:27;8.80;;;1.00;;
72286;SDS011;60221;45.696;16.076;2023-03-31T15:46:56;30.40;;;14.80;;
72286;SDS011;60221;45.696;16.076;2023-03-31T15:49:24;27.10;;;15.50;;
72286;SDS011;60221;45.696;16.076;2023-03-31T15:51:51;17.90;;;9.10;;
72286;SDS011;60221;45.696;16.076;2023-03-31T15:56:52;58.10;;;23.70;;
72286;SDS011;60221;45.696;16.076;2023-03-31T15:59:22;22.90;;;9.10;;
72286;SDS011;60221;45.696;16.076;2023-03-31T16:01:59;13.00;;;6.00;;
72286;SDS011;60221;45.696;16.076;2023-03-31T16:04:29;14.60;;;5.70;;
72286;SDS011;60221;45.696;16.076;2023-03-31T16:06:59;10.40;;;4.20;;
72286;SDS011;60221;45.696;16.076;2023-03-31T16:09:38;30.50;;;13.40;;
72286;SDS011;60221;45.696;16.076;2023-03-31T16:15:02;9.20;;;1.50;;
72286;SDS011;60221;45.696;16.076;2023-03-31T16:17:46;7.40;;;1.30;;
72286;SDS011;60221;45.696;16.076;2023-03-31T16:22:48;4.10;;;1.10;;
72286;SDS011;60221;45.696;16.076;2023-03-31T16:25:17;7.30;;;1.40;;
72286;SDS011;60221;45.696;16.076;2023-03-31T16:27:46;5.90;;;1.80;;
72286;SDS011;60221;45.696;16.076;2023-03-31T16:30:15;5.80;;;1.60;;
72286;SDS011;60221;45.696;16.076;2023-03-31T16:35:29;5.70;;;1.20;;
72286;SDS011;60221;45.696;16.076;2023-03-31T16:37:56;8.40;;;1.30;;
72286;SDS011;60221;45.696;16.076;2023-03-31T16:40:23;9.00;;;2.20;;
72286;SDS011;60221;45.696;16.076;2023-03-31T16:43:05;7.90;;;1.50;;
72286;SDS011;60221;45.696;16.076;2023-03-31T16:45:33;5.90;;;1.00;;
72286;SDS011;60221;45.696;16.076;2023-03-31T16:48:06;7.10;;;2.10;;
72286;SDS011;60221;45.696;16.076;2023-03-31T16:50:42;8.60;;;1.80;;
72286;SDS011;60221;45.696;16.076;2023-03-31T16:53:10;7.70;;;1.80;;
72286;SDS011;60221;45.696;16.076;2023-03-31T16:55:38;10.00;;;1.90;;
72286;SDS011;60221;45.696;16.076;2023-03-31T16:58:05;16.60;;;7.60;;
72286;SDS011;60221;45.696;16.076;2023-03-31T17:00:34;22.10;;;9.10;;
72286;SDS011;60221;45.696;16.076;2023-03-31T17:03:02;12.80;;;3.90;;
72286;SDS011;60221;45.696;16.076;2023-03-31T17:05:29;10.50;;;3.30;;
72286;SDS011;60221;45.696;16.076;2023-03-31T17:07:59;16.50;;;6.50;;
72286;SDS011;60221;45.696;16.076;2023-03-31T17:10:26;8.30;;;2.40;;
72286;SDS011;60221;45.696;16.076;2023-03-31T17:12:53;7.40;;;1.70;;
72286;SDS011;60221;45.696;16.076;2023-03-31T17:15:20;7.00;;;1.90;;
72286;SDS011;60221;45.696;16.076;2023-03-31T17:17:47;5.50;;;1.40;;
72286;SDS011;60221;45.696;16.076;2023-03-31T17:20:14;6.30;;;1.80;;
72286;SDS011;60221;45.696;16.076;2023-03-31T17:22:42;7.20;;;1.20;;
72286;SDS011;60221;45.696;16.076;2023-03-31T17:25:08;6.50;;;1.50;;
72286;SDS011;60221;45.696;16.076;2023-03-31T17:27:37;7.00;;;2.00;;
72286;SDS011;60221;45.696;16.076;2023-03-31T17:30:06;7.30;;;2.50;;
72286;SDS011;60221;45.696;16.076;2023-03-31T17:32:34;6.80;;;2.20;;
72286;SDS011;60221;45.696;16.076;2023-03-31T17:35:01;9.40;;;4.40;;
72286;SDS011;60221;45.696;16.076;2023-03-31T17:37:30;6.60;;;2.00;;
72286;SDS011;60221;45.696;16.076;2023-03-31T17:39:57;7.20;;;2.50;;
72286;SDS011;60221;45.696;16.076;2023-03-31T17:42:25;9.60;;;2.50;;
72286;SDS011;60221;45.696;16.076;2023-03-31T17:44:52;8.30;;;2.70;;
72286;SDS011;60221;45.696;16.076;2023-03-31T17:47:19;8.50;;;2.90;;
72286;SDS011;60221;45.696;16.076;2023-03-31T17:49:48;8.30;;;3.90;;
72286;SDS011;60221;45.696;16.076;2023-03-31T17:52:16;8.00;;;3.70;;